Time;durP1;ratioP1;P1;durP2;ratioP2;P2;SDS_P1;SDS_P2;PMS_P1;PMS_P2;Temp;Humidity;BMP_temperature;BMP_pressure;BME280_temperature;BME280_humidity;BME280_pressure;Samples;Min_cycle;Max_cycle;Signal;HPM_P1;HPM_P2
2021/07/14 02:45:22;;;;;;;11.60;3.75;;;22.50;77.90;;;;;;5716705;24;20022;-76
2021/07/14 02:47:49;;;;;;;6.72;2.28;;;22.50;77.50;;;;;;4776537;30;20283;-76
2021/07/14 02:50:19;;;;;;;4.43;2.47;;;22.60;77.50;;;;;;4744772;30;20036;-76
2021/07/14 02:52:53;;;;;;;3.85;2.45;;;22.50;77.10;;;;;;4771700;30;20102;-76
2021/07/14 02:55:22;;;;;;;3.05;2.25;;;22.60;77.00;;;;;;4779713;30;20053;-76
2021/07/14 02:57:53;;;;;;;6.35;2.40;;;22.60;76.80;;;;;;4763878;30;20070;-76
2021/07/14 03:00:20;;;;;;;2.45;2.25;;;22.60;76.70;;;;;;4763698;30;20087;-76
2021/07/14 03:02:47;;;;;;;5.05;2.45;;;22.60;76.30;;;;;;4763484;30;20039;-76
2021/07/14 03:05:14;;;;;;;5.70;2.47;;;22.60;76.10;;;;;;4748815;30;20363;-76
2021/07/14 03:07:42;;;;;;;2.93;2.23;;;22.70;75.80;;;;;;4763622;30;20032;-76
2021/07/14 03:10:08;;;;;;;10.25;2.78;;;22.70;75.70;;;;;;4779386;30;20039;-76
2021/07/14 03:12:36;;;;;;;4.77;2.17;;;22.70;75.50;;;;;;4779604;30;20097;-76
2021/07/14 03:15:05;;;;;;;10.30;2.53;;;22.80;75.00;;;;;;4763361;30;20040;-76
2021/07/14 03:17:32;;;;;;;9.68;2.40;;;22.70;74.80;;;;;;4751843;30;20031;-76
2021/07/14 03:20:00;;;;;;;4.90;2.58;;;22.60;75.10;;;;;;4763299;30;20036;-76
2021/07/14 03:22:27;;;;;;;5.25;2.42;;;22.50;75.40;;;;;;4748739;30;20063;-76
2021/07/14 03:24:55;;;;;;;7.40;1.95;;;22.40;75.90;;;;;;4755089;30;20089;-76
2021/07/14 03:27:21;;;;;;;3.05;2.28;;;22.20;76.50;;;;;;4782903;30;20028;-76
2021/07/14 03:29:50;;;;;;;3.35;2.20;;;22.10;77.50;;;;;;4782883;30;20095;-76
2021/07/14 03:32:17;;;;;;;5.18;2.00;;;21.90;78.40;;;;;;4766475;30;20043;-76
2021/07/14 03:34:43;;;;;;;4.72;2.25;;;21.80;78.70;;;;;;4751894;30;20039;-76
2021/07/14 03:37:10;;;;;;;13.48;3.20;;;21.90;80.50;;;;;;4766609;30;20216;-75
2021/07/14 03:39:40;;;;;;;7.65;2.78;;;21.80;83.60;;;;;;4782349;30;20080;-75
2021/07/14 03:42:09;;;;;;;16.25;3.47;;;21.70;85.30;;;;;;4782487;30;20039;-75
2021/07/14 03:44:36;;;;;;;16.75;4.72;;;21.70;86.90;;;;;;4782503;30;20262;-75
2021/07/14 03:47:03;;;;;;;8.30;3.78;;;21.60;88.10;;;;;;4765855;30;20057;-75
2021/07/14 03:49:31;;;;;;;6.18;3.10;;;21.60;90.00;;;;;;4782561;30;20036;-75
2021/07/14 03:51:57;;;;;;;10.77;2.85;;;21.60;90.10;;;;;;4766443;30;20036;-75
2021/07/14 03:54:27;;;;;;;13.90;3.00;;;21.50;90.50;;;;;;4766416;30;20110;-75
2021/07/14 03:56:54;;;;;;;10.65;3.67;;;21.50;90.70;;;;;;4782095;30;20073;-75
2021/07/14 03:59:20;;;;;;;8.40;3.97;;;21.40;91.20;;;;;;4778264;30;20043;-75
2021/07/14 04:01:48;;;;;;;12.70;3.50;;;21.40;92.10;;;;;;4780382;30;20035;-75
2021/07/14 04:04:14;;;;;;;9.77;3.90;;;21.30;92.40;;;;;;4775263;30;20034;-77
2021/07/14 04:06:45;;;;;;;8.95;3.83;;;21.20;93.00;;;;;;4748606;30;20052;-75
2021/07/14 04:09:20;;;;;;;11.63;3.50;;;21.10;93.20;;;;;;4778157;30;20067;-75
2021/07/14 04:11:47;;;;;;;7.82;3.53;;;21.10;93.40;;;;;;4781870;30;20094;-76
2021/07/14 04:14:13;;;;;;;10.70;3.58;;;21.10;93.60;;;;;;4765432;30;20039;-76
2021/07/14 04:16:40;;;;;;;11.98;3.85;;;21.10;93.70;;;;;;4781682;30;20197;-75
2021/07/14 04:19:05;;;;;;;8.13;3.58;;;21.10;93.70;;;;;;4781705;30;20221;-76
2021/07/14 04:21:31;;;;;;;8.38;3.35;;;21.10;93.70;;;;;;4765422;30;20027;-75
2021/07/14 04:23:57;;;;;;;12.50;3.85;;;21.10;93.90;;;;;;4781581;30;20066;-75
2021/07/14 04:26:24;;;;;;;8.43;3.15;;;21.10;94.00;;;;;;4781353;30;20016;-75
2021/07/14 04:28:52;;;;;;;6.87;3.13;;;21.10;94.00;;;;;;4765578;30;20027;-76
2021/07/14 04:31:18;;;;;;;7.07;3.30;;;21.00;94.60;;;;;;4765326;30;20047;-75
2021/07/14 04:33:44;;;;;;;15.35;4.30;;;20.90;95.50;;;;;;4765723;30;20106;-76
2021/07/14 04:36:10;;;;;;;20.35;5.57;;;20.80;95.40;;;;;;4781514;30;20093;-76
2021/07/14 04:38:36;;;;;;;12.95;4.72;;;20.80;95.90;;;;;;4765640;30;20059;-75
2021/07/14 04:41:06;;;;;;;15.80;3.38;;;20.60;96.50;;;;;;4765379;30;20047;-75
2021/07/14 04:43:32;;;;;;;9.27;4.05;;;20.60;97.00;;;;;;4750653;30;20035;-75
2021/07/14 04:45:58;;;;;;;13.02;3.85;;;20.40;98.00;;;;;;4764237;30;20051;-76
2021/07/14 04:48:25;;;;;;;11.73;3.97;;;20.30;98.30;;;;;;4770064;30;20235;-75
2021/07/14 04:50:51;;;;;;;9.73;2.97;;;20.30;98.80;;;;;;4779716;30;20030;-75
2021/07/14 04:53:17;;;;;;;11.43;3.05;;;20.30;98.90;;;;;;4765083;30;20046;-76
2021/07/14 04:55:43;;;;;;;12.05;3.00;;;20.30;98.80;;;;;;4777038;30;20335;-75
2021/07/14 04:58:09;;;;;;;7.72;2.88;;;20.20;98.70;;;;;;4750181;30;20073;-76
2021/07/14 05:00:35;;;;;;;9.70;2.88;;;20.10;98.90;;;;;;4764979;30;20081;-77
2021/07/14 05:03:01;;;;;;;10.52;2.70;;;20.10;99.20;;;;;;4779423;30;20163;-76
2021/07/14 05:05:27;;;;;;;12.90;3.47;;;20.10;99.00;;;;;;4763615;30;20027;-76
2021/07/14 05:07:52;;;;;;;14.80;4.50;;;20.20;99.20;;;;;;4764524;30;20034;-75
2021/07/14 05:10:20;;;;;;;17.17;3.85;;;20.30;99.50;;;;;;4780433;30;20284;-76
2021/07/14 05:12:47;;;;;;;8.50;2.88;;;20.30;99.60;;;;;;4764540;30;20047;-76
2021/07/14 05:15:13;;;;;;;7.03;3.33;;;20.20;99.20;;;;;;4780929;30;20092;-76
2021/07/14 05:17:39;;;;;;;5.78;3.05;;;20.30;99.40;;;;;;4750172;30;20035;-76
2021/07/14 05:20:07;;;;;;;9.32;2.78;;;20.30;99.20;;;;;;4764728;30;20130;-76
2021/07/14 05:22:32;;;;;;;6.85;2.35;;;20.30;99.10;;;;;;4764999;30;20032;-76
2021/07/14 05:24:59;;;;;;;6.90;2.83;;;20.30;98.90;;;;;;4764720;30;20034;-76
2021/07/14 05:27:24;;;;;;;8.82;2.35;;;20.40;98.60;;;;;;4764400;30;20303;-77
2021/07/14 05:29:50;;;;;;;7.68;2.35;;;20.50;98.10;;;;;;4764707;30;20031;-76
2021/07/14 05:32:17;;;;;;;7.60;2.78;;;20.50;98.10;;;;;;4780500;30;20043;-75
2021/07/14 05:34:43;;;;;;;11.43;3.50;;;20.40;98.00;;;;;;4779860;30;20231;-76
2021/07/14 05:37:09;;;;;;;9.95;3.47;;;20.50;98.50;;;;;;4780565;30;20043;-76
2021/07/14 05:39:35;;;;;;;8.27;2.67;;;20.60;99.00;;;;;;4764443;30;20032;-76
2021/07/14 05:42:02;;;;;;;6.80;2.63;;;20.90;98.90;;;;;;4764804;30;20039;-76
2021/07/14 05:44:27;;;;;;;;;;;21.40;97.80;;;;;;4775556;30;20266;-77
2021/07/14 05:46:53;;;;;;;8.07;2.23;;;21.70;96.70;;;;;;4767209;30;20190;-77
2021/07/14 05:49:19;;;;;;;4.68;2.22;;;21.80;95.50;;;;;;4763961;30;20023;-76
2021/07/14 05:51:45;;;;;;;6.95;2.30;;;21.80;95.50;;;;;;4764353;30;20050;-76
2021/07/14 05:54:11;;;;;;;4.45;2.13;;;21.80;95.10;;;;;;4764340;30;20028;-76
2021/07/14 05:56:37;;;;;;;6.80;1.77;;;21.90;95.10;;;;;;4764369;30;20331;-77
2021/07/14 05:59:03;;;;;;;8.00;1.80;;;22.10;94.50;;;;;;4780102;30;20095;-77
2021/07/14 06:01:28;;;;;;;9.27;2.40;;;22.20;94.60;;;;;;4759984;30;20047;-76
2021/07/14 06:03:54;;;;;;;8.13;2.70;;;22.40;94.60;;;;;;4764239;30;20103;-77
2021/07/14 06:06:20;;;;;;;9.55;2.50;;;22.70;94.50;;;;;;4763890;30;20216;-76
2021/07/14 06:08:46;;;;;;;6.65;1.95;;;22.70;94.20;;;;;;4763930;30;20079;-76
2021/07/14 06:11:12;;;;;;;7.63;3.03;;;22.90;93.90;;;;;;4779751;30;20027;-76
2021/07/14 06:13:38;;;;;;;6.45;2.40;;;23.10;93.70;;;;;;4779515;30;20047;-75
2021/07/14 06:16:04;;;;;;;7.05;2.05;;;23.30;94.40;;;;;;4762596;30;20387;-75
2021/07/14 06:18:30;;;;;;;4.88;2.38;;;23.40;93.40;;;;;;4777513;30;20101;-76
2021/07/14 06:20:56;;;;;;;5.63;2.10;;;23.40;93.10;;;;;;4779287;30;20099;-77
2021/07/14 06:23:21;;;;;;;5.80;2.45;;;23.40;93.10;;;;;;4762903;30;20047;-76
2021/07/14 06:25:47;;;;;;;4.47;2.80;;;23.30;93.10;;;;;;4763431;30;20081;-76
2021/07/14 06:28:13;;;;;;;7.57;2.25;;;23.20;93.30;;;;;;4762257;30;20059;-76
2021/07/14 06:30:40;;;;;;;4.40;2.53;;;23.20;93.60;;;;;;4764731;30;20042;-77
2021/07/14 06:33:06;;;;;;;3.97;2.42;;;23.10;93.50;;;;;;4777569;30;20046;-76
2021/07/14 06:35:32;;;;;;;9.57;2.80;;;23.10;93.60;;;;;;4763711;30;20059;-76
2021/07/14 06:37:58;;;;;;;6.03;2.15;;;23.00;92.80;;;;;;4754455;30;20054;-77
2021/07/14 06:40:24;;;;;;;7.35;2.33;;;22.90;92.80;;;;;;4779084;30;20031;-76
2021/07/14 06:42:50;;;;;;;5.53;2.33;;;22.90;92.80;;;;;;4760542;30;20028;-76
2021/07/14 06:45:23;;;;;;;7.68;2.58;;;22.80;92.80;;;;;;4775146;30;20344;-76
2021/07/14 06:47:49;;;;;;;6.88;2.90;;;22.70;92.90;;;;;;4774417;30;20054;-79
2021/07/14 06:50:16;;;;;;;7.97;2.50;;;22.60;93.30;;;;;;4766112;30;20051;-78
2021/07/14 06:52:43;;;;;;;5.00;2.40;;;22.50;93.20;;;;;;4751792;30;20024;-79
2021/07/14 06:55:10;;;;;;;7.80;2.80;;;22.60;93.30;;;;;;4767113;30;20262;-79
2021/07/14 06:57:36;;;;;;;;;;;22.50;93.40;;;;;;4767588;30;20036;-79
2021/07/14 07:00:05;;;;;;;5.20;2.25;;;22.40;93.80;;;;;;4754215;30;20216;-78
2021/07/14 07:02:31;;;;;;;4.80;2.15;;;22.40;93.30;;;;;;4768571;30;20062;-78
2021/07/14 07:04:56;;;;;;;5.28;2.28;;;22.30;93.90;;;;;;4767199;30;20315;-78
2021/07/14 07:07:22;;;;;;;6.60;3.28;;;22.30;93.70;;;;;;4770591;30;20031;-78
2021/07/14 07:09:48;;;;;;;13.85;3.67;;;22.20;93.80;;;;;;4770759;30;20066;-78
2021/07/14 07:12:14;;;;;;;8.90;3.42;;;22.20;94.20;;;;;;4756057;30;20375;-78
2021/07/14 07:14:42;;;;;;;11.38;3.70;;;22.10;94.40;;;;;;4756347;30;20032;-78
2021/07/14 07:17:08;;;;;;;12.30;3.63;;;22.10;94.30;;;;;;4786830;30;20058;-78
2021/07/14 07:19:34;;;;;;;10.27;3.55;;;22.10;94.10;;;;;;4770802;30;20063;-78
2021/07/14 07:22:00;;;;;;;7.32;3.95;;;22.00;94.50;;;;;;4787398;30;20066;-78
2021/07/14 07:24:26;;;;;;;14.68;4.93;;;22.00;94.40;;;;;;4759207;30;20020;-78
2021/07/14 07:26:52;;;;;;;11.88;4.90;;;21.90;94.50;;;;;;4771754;30;20034;-78
2021/07/14 07:29:17;;;;;;;11.63;4.55;;;21.90;94.70;;;;;;4756676;30;20320;-78
2021/07/14 07:31:44;;;;;;;11.20;4.15;;;21.80;94.90;;;;;;4787239;30;20031;-78
2021/07/14 07:34:10;;;;;;;15.07;4.18;;;21.80;95.10;;;;;;4775402;30;20032;-78
2021/07/14 07:36:36;;;;;;;9.15;3.97;;;21.80;95.20;;;;;;4774945;30;20068;-78
2021/07/14 07:39:05;;;;;;;10.13;4.13;;;21.80;95.10;;;;;;4774443;30;20032;-78
2021/07/14 07:41:30;;;;;;;9.85;3.83;;;21.80;95.50;;;;;;4772357;30;20039;-76
2021/07/14 07:43:56;;;;;;;7.43;3.80;;;21.80;95.40;;;;;;4766776;30;20072;-76
2021/07/14 07:46:22;;;;;;;6.75;4.22;;;21.90;95.30;;;;;;4772281;30;20047;-77
2021/07/14 07:48:48;;;;;;;7.32;4.07;;;21.90;95.90;;;;;;4779365;30;20419;-76
2021/07/14 07:51:14;;;;;;;16.92;5.57;;;22.00;96.00;;;;;;4765840;30;20035;-76
2021/07/14 07:53:40;;;;;;;11.75;5.35;;;21.90;96.30;;;;;;4766644;30;20304;-76
2021/07/14 07:56:06;;;;;;;22.40;6.18;;;21.70;96.70;;;;;;4782785;30;20270;-76
2021/07/14 07:58:32;;;;;;;24.30;6.35;;;21.70;97.00;;;;;;4781653;30;20055;-76
2021/07/14 08:00:59;;;;;;;13.70;5.93;;;21.70;97.70;;;;;;4782768;30;20076;-75
2021/07/14 08:03:25;;;;;;;12.07;5.57;;;21.80;97.70;;;;;;4766678;30;20054;-76
2021/07/14 08:05:51;;;;;;;12.20;5.80;;;22.10;97.40;;;;;;4778567;30;20441;-77
2021/07/14 08:08:18;;;;;;;11.02;4.93;;;22.30;97.10;;;;;;4758951;30;20059;-78
2021/07/14 08:10:44;;;;;;;13.75;5.03;;;22.40;97.20;;;;;;4767544;30;20027;-78
2021/07/14 08:13:10;;;;;;;10.90;4.15;;;22.60;97.10;;;;;;4753184;30;20344;-78
2021/07/14 08:15:36;;;;;;;11.23;4.65;;;22.70;96.30;;;;;;4768091;30;20204;-78
2021/07/14 08:18:02;;;;;;;9.18;4.57;;;22.80;95.80;;;;;;4755421;30;20321;-78
2021/07/14 08:20:28;;;;;;;14.23;5.82;;;22.80;96.20;;;;;;4783578;30;20032;-78
2021/07/14 08:22:54;;;;;;;11.45;5.82;;;22.90;96.00;;;;;;4767504;30;20053;-78
2021/07/14 08:25:20;;;;;;;11.60;5.30;;;23.00;95.70;;;;;;4747713;30;20032;-78
2021/07/14 08:27:46;;;;;;;17.73;4.53;;;23.00;95.00;;;;;;4761231;30;20043;-78
2021/07/14 08:30:13;;;;;;;13.95;4.43;;;22.90;94.70;;;;;;4759532;30;20367;-78
2021/07/14 08:32:39;;;;;;;11.23;4.78;;;22.90;95.30;;;;;;4750048;30;20115;-77
2021/07/14 08:35:06;;;;;;;20.17;6.13;;;22.80;95.00;;;;;;4759796;30;20066;-78
2021/07/14 08:37:33;;;;;;;12.32;5.57;;;22.50;95.70;;;;;;4767276;30;20316;-78
2021/07/14 08:39:59;;;;;;;10.98;5.85;;;22.20;96.80;;;;;;4767898;30;20090;-78
2021/07/14 08:42:26;;;;;;;13.67;5.97;;;22.10;97.40;;;;;;4781860;30;20054;-78
2021/07/14 08:44:53;;;;;;;19.60;7.78;;;22.00;98.00;;;;;;4776885;30;20036;-77
2021/07/14 08:47:20;;;;;;;22.15;7.47;;;21.90;98.30;;;;;;4750803;30;20044;-77
2021/07/14 08:49:49;;;;;;;27.48;8.55;;;21.80;98.70;;;;;;4756351;30;20036;-77
2021/07/14 08:52:17;;;;;;;19.67;8.00;;;21.80;99.20;;;;;;4751953;30;20047;-75
2021/07/14 08:54:43;;;;;;;19.02;8.60;;;21.80;99.50;;;;;;4743927;30;20475;-76
2021/07/14 08:57:14;;;;;;;21.90;8.90;;;21.80;99.90;;;;;;4747274;30;20176;-77
2021/07/14 08:59:41;;;;;;;23.10;9.48;;;22.00;99.90;;;;;;4750950;30;20033;-76
2021/07/14 09:02:08;;;;;;;34.90;11.40;;;22.20;99.90;;;;;;4761497;30;20060;-77
2021/07/14 09:04:35;;;;;;;37.30;11.10;;;22.40;99.90;;;;;;4748896;30;20059;-76
2021/07/14 09:07:02;;;;;;;16.80;9.10;;;22.50;99.90;;;;;;4744351;30;20235;-76
2021/07/14 09:09:30;;;;;;;20.60;9.93;;;22.60;99.60;;;;;;4729666;30;20040;-76
2021/07/14 09:11:58;;;;;;;25.50;8.88;;;22.60;99.80;;;;;;4748529;30;20385;-76
2021/07/14 09:14:34;;;;;;;17.67;7.43;;;22.60;99.50;;;;;;4741545;30;20081;-77
2021/07/14 09:17:02;;;;;;;18.90;8.18;;;22.50;99.70;;;;;;4750291;30;20054;-76
2021/07/14 09:19:30;;;;;;;14.40;6.22;;;22.50;99.40;;;;;;4745635;30;20055;-76
2021/07/14 09:21:57;;;;;;;10.27;4.75;;;22.40;98.90;;;;;;4756764;30;20044;-77
2021/07/14 09:24:31;;;;;;;11.00;4.50;;;22.50;99.10;;;;;;4741772;30;20404;-77
2021/07/14 09:26:58;;;;;;;12.25;4.55;;;22.60;99.40;;;;;;4750426;30;20028;-77
2021/07/14 09:29:25;;;;;;;7.05;3.47;;;22.80;99.00;;;;;;4747189;30;20316;-79
2021/07/14 09:31:52;;;;;;;11.50;3.17;;;22.90;97.40;;;;;;4731401;30;20113;-79
2021/07/14 09:34:32;;;;;;;6.68;3.03;;;22.90;97.70;;;;;;4751972;30;20036;-79
2021/07/14 09:36:59;;;;;;;5.80;2.55;;;23.00;98.00;;;;;;4741979;30;20046;-79
2021/07/14 09:39:39;;;;;;;7.53;2.42;;;23.00;96.80;;;;;;4736488;30;20032;-79
2021/07/14 09:42:10;;;;;;;7.57;2.25;;;23.20;96.40;;;;;;4742259;30;20409;-79
2021/07/14 09:44:48;;;;;;;11.02;2.55;;;23.40;96.70;;;;;;4728893;30;20033;-79
2021/07/14 09:47:18;;;;;;;7.07;2.50;;;23.70;95.70;;;;;;4723527;30;20048;-79
2021/07/14 09:49:46;;;;;;;10.77;2.25;;;24.10;95.90;;;;;;4745018;30;20040;-77
2021/07/14 09:52:15;;;;;;;10.02;2.72;;;24.30;93.80;;;;;;4729148;30;20037;-79
2021/07/14 09:54:41;;;;;;;5.45;2.17;;;24.60;94.30;;;;;;4744543;30;20036;-77
2021/07/14 09:57:13;;;;;;;9.27;2.20;;;24.90;92.50;;;;;;4747241;30;20040;-79
2021/07/14 09:59:39;;;;;;;9.25;2.40;;;25.30;90.80;;;;;;4743241;30;20048;-78
2021/07/14 10:02:09;;;;;;;11.05;2.30;;;25.30;89.90;;;;;;4744844;30;20016;-83
2021/07/14 10:04:37;;;;;;;7.72;2.22;;;25.20;90.00;;;;;;4743888;30;20033;-78
2021/07/14 10:07:20;;;;;;;7.70;2.33;;;25.20;89.90;;;;;;4730086;30;20081;-76
2021/07/14 10:09:49;;;;;;;5.97;2.08;;;25.20;90.20;;;;;;4743983;30;20098;-77
2021/07/14 10:12:27;;;;;;;9.13;2.30;;;25.20;90.60;;;;;;4743794;30;20060;-77
2021/07/14 10:14:55;;;;;;;8.43;2.85;;;25.20;90.20;;;;;;4740336;30;20064;-77
2021/07/14 10:17:47;;;;;;;11.15;3.15;;;25.00;89.40;;;;;;4743609;30;20020;-76
2021/07/14 10:20:22;;;;;;;7.05;2.58;;;24.80;90.70;;;;;;4743680;30;20050;-77
2021/07/14 10:22:55;;;;;;;12.13;2.80;;;24.70;90.20;;;;;;4741872;30;20107;-77
2021/07/14 10:25:22;;;;;;;9.52;3.00;;;24.70;90.60;;;;;;4729306;30;20064;-77
2021/07/14 10:27:49;;;;;;;9.82;2.90;;;24.70;90.00;;;;;;4743676;30;20029;-76
2021/07/14 10:30:17;;;;;;;10.23;3.10;;;24.70;90.00;;;;;;4744389;30;20033;-76
2021/07/14 10:32:43;;;;;;;9.63;2.60;;;24.70;90.90;;;;;;4740210;30;20046;-79
2021/07/14 10:35:15;;;;;;;8.10;2.70;;;25.00;90.60;;;;;;4731496;30;20048;-77
2021/07/14 10:37:48;;;;;;;5.65;2.28;;;25.30;88.80;;;;;;4742756;30;20029;-77
2021/07/14 10:40:16;;;;;;;11.13;2.35;;;25.50;89.00;;;;;;4743607;30;20047;-77
2021/07/14 10:42:45;;;;;;;10.50;3.20;;;26.00;86.20;;;;;;4741006;30;20037;-78
2021/07/14 10:45:12;;;;;;;13.13;2.90;;;26.30;81.90;;;;;;4757581;30;20037;-78
2021/07/14 10:47:38;;;;;;;8.77;2.40;;;26.30;82.70;;;;;;4749677;30;20403;-79
2021/07/14 10:50:06;;;;;;;12.75;2.80;;;26.00;79.90;;;;;;4780323;30;20036;-78
2021/07/14 10:52:32;;;;;;;11.82;2.42;;;25.80;79.40;;;;;;4765414;30;20247;-78
2021/07/14 10:54:59;;;;;;;8.53;2.60;;;25.60;80.90;;;;;;4765110;30;20039;-78
2021/07/14 10:57:26;;;;;;;11.85;2.38;;;25.30;82.00;;;;;;4755095;30;20284;-77
2021/07/14 10:59:52;;;;;;;14.90;3.17;;;25.20;84.60;;;;;;4760704;30;20235;-76
2021/07/14 11:02:36;;;;;;;15.63;3.60;;;25.00;89.00;;;;;;4761522;30;20063;-76
2021/07/14 11:05:02;;;;;;;9.60;3.00;;;25.10;90.20;;;;;;4779851;30;20660;-77
2021/07/14 11:07:36;;;;;;;9.63;3.30;;;25.40;92.00;;;;;;4779848;30;20019;-76
2021/07/14 11:10:31;;;;;;;17.83;3.65;;;26.00;91.40;;;;;;4758508;30;20044;-77
2021/07/14 11:12:59;;;;;;;12.00;2.72;;;26.60;90.60;;;;;;4780321;30;20027;-76
2021/07/14 11:15:33;;;;;;;7.50;2.78;;;26.80;87.70;;;;;;4778686;30;20047;-78
2021/07/14 11:18:18;;;;;;;7.40;2.67;;;27.00;84.10;;;;;;4780755;30;20330;-78
2021/07/14 11:20:44;;;;;;;10.25;3.17;;;27.10;80.50;;;;;;4758206;30;20055;-77
2021/07/14 11:23:20;;;;;;;9.90;2.87;;;27.20;81.00;;;;;;4780165;30;20024;-77
2021/07/14 11:25:48;;;;;;;12.30;3.38;;;27.40;79.00;;;;;;4768763;30;20034;-77
2021/07/14 11:28:14;;;;;;;14.32;2.95;;;27.70;81.00;;;;;;4761082;30;20044;-77
2021/07/14 11:30:54;;;;;;;8.87;2.93;;;28.30;83.10;;;;;;4780063;30;20024;-77
2021/07/14 11:33:35;;;;;;;9.90;2.85;;;28.80;79.40;;;;;;4770076;30;20193;-77
2021/07/14 11:36:05;;;;;;;9.57;2.95;;;29.40;73.70;;;;;;4780396;30;20077;-77
2021/07/14 11:38:43;;;;;;;6.53;3.00;;;29.30;70.00;;;;;;4767025;30;20039;-78
2021/07/14 11:41:24;;;;;;;13.80;3.28;;;28.60;71.40;;;;;;4779681;30;20365;-77
2021/07/14 11:43:53;;;;;;;6.45;3.03;;;28.40;72.30;;;;;;4742261;30;20032;-77
2021/07/14 11:46:26;;;;;;;8.70;3.53;;;28.20;72.80;;;;;;4755659;30;20231;-77
2021/07/14 11:49:06;;;;;;;12.57;3.60;;;28.00;72.20;;;;;;4767669;30;20032;-77
2021/07/14 11:51:37;;;;;;;10.48;3.60;;;28.20;74.10;;;;;;4767281;30;20035;-78
2021/07/14 11:54:23;;;;;;;12.32;3.40;;;28.50;74.80;;;;;;4773213;30;20089;-77
2021/07/14 11:56:51;;;;;;;9.10;4.00;;;28.90;74.00;;;;;;4770545;30;20126;-78
2021/07/14 11:59:22;;;;;;;13.27;3.80;;;29.00;73.50;;;;;;4752601;30;20042;-78
2021/07/14 12:01:52;;;;;;;19.35;3.92;;;29.20;72.30;;;;;;4767063;30;20035;-78
2021/07/14 12:04:19;;;;;;;8.32;3.05;;;29.60;73.60;;;;;;4767392;30;20095;-77
2021/07/14 12:06:53;;;;;;;11.27;3.65;;;29.70;67.40;;;;;;4752944;30;20113;-78
2021/07/14 12:09:18;;;;;;;6.57;3.28;;;29.40;67.40;;;;;;4783134;30;20514;-77
2021/07/14 12:11:51;;;;;;;11.90;3.50;;;29.20;73.20;;;;;;4782908;30;20040;-77
2021/07/14 12:14:24;;;;;;;12.77;3.60;;;29.60;71.10;;;;;;4767062;30;20154;-77
2021/07/14 12:17:21;;;;;;;13.43;3.38;;;30.20;69.00;;;;;;4767097;30;20044;-77
2021/07/14 12:19:55;;;;;;;8.50;3.63;;;30.90;71.30;;;;;;4767028;30;20024;-77
2021/07/14 12:22:24;;;;;;;16.45;4.50;;;31.20;67.10;;;;;;4766681;30;20051;-77
2021/07/14 12:24:57;;;;;;;12.93;4.63;;;31.20;66.00;;;;;;4766732;30;20028;-77
2021/07/14 12:27:28;;;;;;;10.85;4.85;;;30.90;66.50;;;;;;4765641;30;20036;-78
2021/07/14 12:29:57;;;;;;;15.27;4.78;;;30.70;65.80;;;;;;4744253;30;20028;-77
2021/07/14 12:32:45;;;;;;;11.43;5.00;;;30.50;69.70;;;;;;4777276;30;20038;-77
2021/07/14 12:35:21;;;;;;;20.38;5.10;;;30.50;69.00;;;;;;4767195;30;20057;-78
2021/07/14 12:37:50;;;;;;;14.05;4.97;;;30.30;66.90;;;;;;4767306;30;20034;-78
2021/07/14 12:40:20;;;;;;;12.75;5.43;;;30.20;69.90;;;;;;4752620;30;20028;-78
2021/07/14 12:42:46;;;;;;;12.77;4.68;;;30.10;68.20;;;;;;4766813;30;20055;-77
2021/07/14 12:45:25;;;;;;;8.33;4.83;;;30.10;69.80;;;;;;4766730;30;20024;-78
2021/07/14 12:47:50;;;;;;;19.63;5.63;;;30.20;70.80;;;;;;4771450;30;20081;-78
2021/07/14 12:50:24;;;;;;;14.20;6.10;;;30.30;70.50;;;;;;4782713;30;20326;-78
2021/07/14 12:52:52;;;;;;;14.77;5.38;;;30.50;69.80;;;;;;4750269;30;20336;-78
2021/07/14 12:55:20;;;;;;;14.30;5.70;;;30.50;66.50;;;;;;4781101;30;20226;-77
2021/07/14 12:57:46;;;;;;;11.52;5.32;;;30.30;66.30;;;;;;4781055;30;20028;-77
2021/07/14 13:00:13;;;;;;;11.00;6.33;;;30.10;67.00;;;;;;4762827;30;20204;-77
2021/07/14 13:03:02;;;;;;;19.55;6.55;;;30.10;67.50;;;;;;4766183;30;20285;-77
2021/07/14 13:05:29;;;;;;;13.15;6.40;;;30.30;71.00;;;;;;4766343;30;20032;-78
2021/07/14 13:08:05;;;;;;;16.15;6.80;;;30.40;67.60;;;;;;4773455;30;20152;-77
2021/07/14 13:10:32;;;;;;;21.55;6.93;;;30.40;69.70;;;;;;4751534;30;20054;-78
2021/07/14 13:12:58;;;;;;;15.10;6.00;;;30.50;68.80;;;;;;4782453;30;20035;-79
2021/07/14 13:15:26;;;;;;;18.83;7.20;;;30.70;69.90;;;;;;4782214;30;20035;-78
2021/07/14 13:18:08;;;;;;;15.75;7.13;;;31.00;68.10;;;;;;4767071;30;20093;-78
2021/07/14 13:20:49;;;;;;;16.38;7.63;;;31.30;66.00;;;;;;4782048;30;20050;-78
2021/07/14 13:23:21;;;;;;;14.82;7.72;;;31.40;65.60;;;;;;4766149;30;20035;-78
2021/07/14 13:25:50;;;;;;;15.65;7.18;;;31.40;62.40;;;;;;4768900;30;20031;-78
2021/07/14 13:28:36;;;;;;;15.00;7.10;;;31.30;66.50;;;;;;4765368;30;20381;-77
2021/07/14 13:31:07;;;;;;;17.90;6.90;;;31.50;66.60;;;;;;4751317;30;20028;-78
2021/07/14 13:33:39;;;;;;;21.67;7.22;;;31.50;63.30;;;;;;4765580;30;20345;-77
2021/07/14 13:36:07;;;;;;;20.90;6.90;;;31.70;64.00;;;;;;4751155;30;20052;-77
2021/07/14 13:38:42;;;;;;;15.15;6.88;;;31.60;64.90;;;;;;4750573;30;20332;-77
2021/07/14 13:41:13;;;;;;;15.65;7.30;;;31.70;64.30;;;;;;4763985;30;20044;-77
2021/07/14 13:43:43;;;;;;;14.65;6.78;;;31.70;63.60;;;;;;4750502;30;20085;-77
2021/07/14 13:46:10;;;;;;;21.02;8.00;;;31.60;62.90;;;;;;4765428;30;20043;-77
2021/07/14 13:48:37;;;;;;;17.20;7.85;;;31.50;64.20;;;;;;4750320;30;20046;-77
2021/07/14 13:51:04;;;;;;;16.05;7.90;;;31.50;62.10;;;;;;4781474;30;20020;-77
2021/07/14 13:53:29;;;;;;;;;;;31.50;64.50;;;;;;4751009;30;20032;-77
2021/07/14 13:56:06;;;;;;;20.98;7.78;;;31.70;61.70;;;;;;4765729;30;19910;-77
2021/07/14 13:58:33;;;;;;;14.70;7.15;;;31.60;62.00;;;;;;4780343;30;20055;-78
2021/07/14 14:01:00;;;;;;;16.97;7.13;;;31.60;63.10;;;;;;4781418;30;20042;-78
2021/07/14 14:03:27;;;;;;;17.63;7.55;;;31.70;63.10;;;;;;4781010;30;20033;-78
2021/07/14 14:06:22;;;;;;;15.82;6.97;;;31.70;61.20;;;;;;4778408;30;20027;-77
2021/07/14 14:08:52;;;;;;;16.50;6.47;;;31.70;62.00;;;;;;4677085;30;20361;-78
2021/07/14 14:11:24;;;;;;;14.98;6.97;;;31.60;61.70;;;;;;4694618;30;20033;-78
2021/07/14 14:13:50;;;;;;;13.80;6.78;;;31.80;62.20;;;;;;4694538;30;20076;-78
2021/07/14 14:16:16;;;;;;;16.30;8.33;;;31.70;62.00;;;;;;4708949;30;20268;-78
2021/07/14 14:18:42;;;;;;;24.60;7.60;;;31.60;63.10;;;;;;4692391;30;20053;-77
2021/07/14 14:21:09;;;;;;;18.65;8.07;;;31.50;62.90;;;;;;4691987;30;20061;-78
2021/07/14 14:23:36;;;;;;;18.70;7.50;;;31.30;61.80;;;;;;4690231;30;20065;-78
2021/07/14 14:26:03;;;;;;;16.15;7.70;;;31.20;63.00;;;;;;4709461;30;20041;-78
2021/07/14 14:28:29;;;;;;;18.40;6.78;;;31.10;62.60;;;;;;4694939;30;20321;-78
2021/07/14 14:30:57;;;;;;;13.13;6.77;;;31.00;62.80;;;;;;4708986;30;20097;-78
2021/07/14 14:33:23;;;;;;;14.55;7.18;;;31.00;63.60;;;;;;4680347;30;20045;-77
2021/07/14 14:35:49;;;;;;;16.10;6.95;;;30.90;63.50;;;;;;4708971;30;20033;-78
2021/07/14 14:38:21;;;;;;;11.57;6.57;;;30.90;64.10;;;;;;4691624;30;20038;-77
2021/07/14 14:40:49;;;;;;;17.42;7.32;;;30.90;64.50;;;;;;4705608;30;20109;-77
2021/07/14 14:43:17;;;;;;;12.85;6.68;;;30.90;63.40;;;;;;4684983;30;20388;-77
2021/07/14 14:45:44;;;;;;;21.65;8.35;;;30.90;63.80;;;;;;4761406;30;20063;-77
2021/07/14 14:48:11;;;;;;;14.98;7.05;;;30.70;62.40;;;;;;4762932;30;20054;-77
2021/07/14 14:50:37;;;;;;;17.77;7.53;;;30.70;62.90;;;;;;4770794;30;20070;-77
2021/07/14 14:53:03;;;;;;;16.53;6.80;;;30.80;63.30;;;;;;4763591;30;20039;-78
2021/07/14 14:55:29;;;;;;;12.70;6.55;;;31.00;65.00;;;;;;4779206;30;20043;-78
2021/07/14 14:57:55;;;;;;;13.40;7.23;;;31.40;62.90;;;;;;4764413;30;20031;-78
2021/07/14 15:00:21;;;;;;;9.83;6.33;;;31.70;62.60;;;;;;4769578;30;20334;-77
2021/07/14 15:02:48;;;;;;;15.15;6.88;;;32.00;60.50;;;;;;4774331;30;20035;-77
2021/07/14 15:05:16;;;;;;;14.50;6.93;;;32.00;59.50;;;;;;4756747;30;20028;-79
2021/07/14 15:07:42;;;;;;;20.17;7.32;;;32.00;59.90;;;;;;4764683;30;20039;-78
2021/07/14 15:10:08;;;;;;;20.00;6.97;;;32.00;60.20;;;;;;4752214;30;20051;-77
2021/07/14 15:12:34;;;;;;;15.40;6.40;;;31.90;59.20;;;;;;4771623;30;20309;-77
2021/07/14 15:15:00;;;;;;;13.47;6.70;;;32.00;58.60;;;;;;4764243;30;20040;-78
2021/07/14 15:17:26;;;;;;;15.97;6.47;;;32.10;60.10;;;;;;4761307;30;20050;-77
2021/07/14 15:19:52;;;;;;;14.88;6.68;;;32.20;59.30;;;;;;4748218;30;20036;-77
2021/07/14 15:22:19;;;;;;;13.17;6.70;;;31.90;59.30;;;;;;4764939;30;20507;-77
2021/07/14 15:24:49;;;;;;;20.13;7.63;;;31.60;60.10;;;;;;4750565;30;20167;-77
2021/07/14 15:30:00;;;;;;;14.05;7.55;;;30.80;62.90;;;;;;4783389;30;20043;-77
2021/07/14 15:32:25;;;;;;;23.50;6.87;;;30.70;62.50;;;;;;4781255;30;20024;-78
2021/07/14 15:34:51;;;;;;;18.33;8.33;;;30.70;62.30;;;;;;4766641;30;20231;-77